Univ Park, Iowa
Current Conditions -  °F | °C
As of 9:55 AM on Wednesday 26 Nov 2014 (Local Time) from KOOA Reporting Station
Light Snow Light Snow  
Wind Chill: 18°   Ceiling: 600
Heat Index: 29°   Visibility: 0.75mi
Dew Point: 28°   Wind: 14mph
Humidity: 94%   Direction: 120°ESE
Pressure: 29.94"   Gusts: 18mph
Location:  41.2873°N, 92.6193°W
Report Text: KOOA 261555Z AUTO 12012G16KT 3/4SM -SN OVC006 M02/M02 A2994 RMK AO2 T10161024
Loading
Personal Weather Stations






























Interactive Weather Map New forecast layout! Learn more

10-Day Weather Forecast

Advertisements
Track Severe Weather on mobile